ROMMA est une association bénévole à but non lucratif. Votre soutien est indispensable : ADHERER à ROMMA ou FAIRE un DON

Engins - (38, Isère)

Vercors (906 m)   Longitude: 05° 37' E   Latitude: 45° 11' N Station partenaire n°139
 

Détail journalier du     <<     >>

Température Precipitation Humidité Vent Dir Rafale Dir. rafale Ensol.
Heure (°C) (mm) (%) (km/h) (km/h) (min)
01:00 13.60745SO18SO0
02:00 14.30746SSO23SSO0
03:00 14.60746SO23S0
04:00 14.30766SSO16S0
05:00 12.70.6884O10OSO0
06:00 12.13.4924OSO10O0
07:00 11.81.8944O10OSO0
08:00 11.40953OSO11OSO0
09:00 12.20.2955O13O0
10:00 14.30848SO26O0
11:00 16.907211SSO39ONO55
12:00 17.906417S47SSE40
13:00 17.806221S53SO10
14:00 18.405624S58SSE15
15:00 18.205721S52SSE0
16:00 18.305924S61SSE0
17:00 17.906321S52SO0
18:00 17.606220S44SE0
19:00 17.706319S50S0
20:00 17.806118S40S0
21:00 18.006024S56SSE0
22:00 17.805920S60SSO0
23:00 17.705923S63SO0
minuit 17.905526S58SO0

Graphique du 19-10-2019

 

Serveur OMMA